Главная страница
METAR-TAF:

METAR-TAF

Аэропорты :

Владивосток, Россия

широта: 43-07N, долгота: 131-56E, высота над уровнем моря: 184 м

Текущие метеонаблюдения

Эта сводка был подготовлена 27 минут назад, в 06:00 UTC
Ветер 10 Узел от северный
Температура 3°C
Влажность 70%
Давление 1022 hPa
Видимость 10 км и более
Сплошная облачность на высоте 3000 фута

METAR: UHWW 130600Z 36005MPS 9999 OVC030 03/M02 Q1022 R07R/0///70 NOSIG RMK QFE766

Время: 16:27 (06:27 UTC)

Прогноз

Эта сводка был подготовлена 4 часа и 27 минут назад, в 02:00 UTC
Прогноз действительный с 13-го 03 UTC до 14-го 03 UTC
Ветер 6 Узел от северный
Видимость 10 км и более
Рассеянная облачность на высоте 2500 фута
временами
С 13-го 03 UTC до 13-го 12 UTC
Ветер 17 Узел от северный
Рассеянная облачность на высоте 1700 фута, Кучево-дождевые.

TAF: UHWW 130200Z 1303/1403 36003MPS 9999 BKN025 TEMPO 1303/1312 36009MPS BKN017CB

Метеонаблюдения и прогнозы для более 4000 аэропортов (сводки METAR и TAF).

Имеющиеся станции представлены на карте желтыми и красными точками.

Чтобы увидеть название станции, наведите на нее мышь.

Затем щелкните, чтобы увидеть метеонаблюдения и метеопрогнозы.

Управление картой: чтобы увеличить масштаб, щелкните зеленые кнопки с черным крестиком; чтобы уменьшить масштаб, щелкните зеленую кнопку с тире; для просмотра соседних карт щелкайте зеленые стрелки.


METAR-TAF: